In Rescue
 
Open Full Screen Window  High Contrast Mode
Wind Gusting 00 knots
10
March 29, 2020 7:51 PM CDT
Weather Information
Wind Direction
  290 °
Wind Speed
  10 kt (12 mph)
Wind Gust
  00 kt (0 mph)
Altimeter
30.05 in
Visibility
7 SM
Temperature
09° C
48° F
Dewpoint
02° C
36° F
Humidity
62%
1hr Rain Fall
00.00 in.
24hr Rain Fall
00.18 in.
Sky Condition
Clear
VFR

METAR KGDB 300051Z AUTO 29010KT 7SM CLR 09/02 A3005 RMK AO2 T00900020

FAA Disclaimer: The data displayed is for advisory purposes only and is not to be used for flight planning or operations.